Time;durP1;ratioP1;P1;durP2;ratioP2;P2;SDS_P1;SDS_P2;PMS_P1;PMS_P2;Temp;Humidity;BMP_temperature;BMP_pressure;BME280_temperature;BME280_humidity;BME280_pressure;Samples;Min_cycle;Max_cycle;Signal;HPM_P1;HPM_P2
2022/12/22 03:26:42;;;;;;;55.80;31.40;;;;;;;0.55;84.66;95072.84;5095764;28;20328;-74
2022/12/22 03:29:09;;;;;;;51.58;33.88;;;;;;;0.54;84.81;95066.00;5096074;28;20205;-74
2022/12/22 03:31:36;;;;;;;78.05;38.50;;;;;;;0.50;85.35;95066.19;5095853;28;20209;-74
2022/12/22 03:34:04;;;;;;;62.53;36.83;;;;;;;0.49;85.29;95067.09;5095762;28;20259;-74
2022/12/22 03:36:31;;;;;;;54.22;30.35;;;;;;;0.53;85.29;95069.47;5043176;28;20203;-74
2022/12/22 03:38:57;;;;;;;43.83;29.35;;;;;;;0.59;84.88;95064.09;5095762;28;20256;-74
2022/12/22 03:46:53;;;;;;;61.65;38.55;;;;;;;0.52;84.09;95066.97;5095527;28;20289;-74
2022/12/22 03:49:21;;;;;;;61.35;37.40;;;;;;;0.53;84.87;95069.47;5095298;28;20251;-74
2022/12/22 03:51:50;;;;;;;49.80;34.85;;;;;;;0.54;84.40;95063.41;5095292;28;20214;-74
2022/12/22 03:54:19;;;;;;;63.22;36.30;;;;;;;0.57;84.50;95071.03;5095508;28;20601;-74
2022/12/22 03:56:46;;;;;;;62.10;40.38;;;;;;;0.59;83.58;95069.25;5095009;28;20203;-74
2022/12/22 03:59:13;;;;;;;64.93;39.10;;;;;;;0.60;83.36;95070.91;5095289;28;20203;-73
2022/12/22 04:01:43;;;;;;;56.83;36.40;;;;;;;0.59;82.61;95076.16;5058863;28;20232;-75
2022/12/22 04:04:11;;;;;;;64.25;37.42;;;;;;;0.60;82.47;95070.91;5074754;28;20779;-74
2022/12/22 04:06:39;;;;;;;69.72;37.42;;;;;;;0.62;82.76;95068.28;5094185;28;20210;-75
2022/12/22 04:09:06;;;;;;;66.10;38.05;;;;;;;0.65;82.73;95072.47;5093908;28;20207;-74
2022/12/22 04:14:17;;;;;;;59.08;37.08;;;;;;;0.64;82.43;95063.03;5093935;28;20323;-75
2022/12/22 04:16:44;;;;;;;60.70;39.22;;;;;;;0.63;82.40;95066.53;5058105;28;20718;-74
2022/12/22 04:19:11;;;;;;;60.42;36.58;;;;;;;0.63;82.55;95063.94;5058166;28;20713;-74
2022/12/22 04:21:39;;;;;;;61.80;36.63;;;;;;;0.64;82.61;95057.88;5093856;28;20207;-74
2022/12/22 04:24:06;;;;;;;70.18;45.03;;;;;;;0.66;82.79;95063.81;5092759;28;20456;-75
2022/12/22 04:26:33;;;;;;;60.83;39.65;;;;;;;0.72;82.41;95064.38;5094265;28;20260;-76
2022/12/22 04:29:00;;;;;;;61.05;37.47;;;;;;;0.75;82.14;95056.47;5093584;28;20251;-75
2022/12/22 04:31:27;;;;;;;59.42;35.20;;;;;;;0.68;81.57;95056.84;5093775;28;20193;-75
2022/12/22 04:33:54;;;;;;;72.80;44.03;;;;;;;0.69;81.74;95055.94;5093482;28;21076;-74
2022/12/22 04:36:20;;;;;;;68.78;40.50;;;;;;;0.71;81.71;95056.69;5093948;28;20211;-74
2022/12/22 04:38:48;;;;;;;73.25;40.58;;;;;;;0.70;81.88;95053.28;5093554;28;20206;-74
2022/12/22 04:41:15;;;;;;;75.93;41.78;;;;;;;0.62;81.82;95052.78;5093465;28;20554;-75
2022/12/22 04:43:42;;;;;;;66.20;40.47;;;;;;;0.63;81.80;95058.78;5093325;28;20273;-75
2022/12/22 04:46:09;;;;;;;60.50;35.75;;;;;;;0.62;82.29;95057.94;5093414;28;20193;-74
2022/12/22 04:48:35;;;;;;;59.33;38.70;;;;;;;0.64;81.73;95065.63;5093569;28;20211;-74
2022/12/22 04:51:03;;;;;;;58.28;37.60;;;;;;;0.61;81.86;95059.69;5041349;28;20205;-74
2022/12/22 04:53:30;;;;;;;65.15;38.22;;;;;;;0.63;81.75;95061.38;5093399;28;20248;-74
2022/12/22 04:56:01;;;;;;;58.47;37.17;;;;;;;0.63;81.43;95063.94;5093268;28;20261;-74
2022/12/22 04:58:28;;;;;;;62.47;37.17;;;;;;;0.63;80.90;95076.84;5093373;28;20210;-74
2022/12/22 05:00:55;;;;;;;57.37;34.97;;;;;;;0.58;81.02;95077.06;5045347;28;1170136;-74
2022/12/22 05:03:23;;;;;;;53.90;33.92;;;;;;;0.58;81.37;95075.31;5093825;28;20206;-74
2022/12/22 05:05:50;;;;;;;61.95;37.35;;;;;;;0.58;81.54;95062.41;5093190;28;20210;-75
2022/12/22 05:08:16;;;;;;;53.55;34.85;;;;;;;0.58;81.34;95061.56;5093268;28;20210;-74
2022/12/22 05:10:43;;;;;;;54.28;33.95;;;;;;;0.46;81.55;95065.50;5093655;28;20203;-75
2022/12/22 05:13:11;;;;;;;65.38;34.30;;;;;;;0.36;82.19;95065.97;5093710;28;20654;-75
2022/12/22 05:15:38;;;;;;;60.05;34.95;;;;;;;0.32;82.60;95064.41;5093821;28;20203;-74
2022/12/22 05:18:05;;;;;;;57.78;33.38;;;;;;;0.25;82.40;95059.50;5094075;28;20256;-74
2022/12/22 05:20:32;;;;;;;53.75;31.50;;;;;;;0.25;82.53;95061.22;5093749;28;20254;-75
2022/12/22 05:22:59;;;;;;;54.15;31.80;;;;;;;0.28;82.67;95068.84;5093686;28;20205;-74
2022/12/22 05:25:26;;;;;;;55.88;32.72;;;;;;;0.29;82.31;95066.22;5093491;28;20226;-76
2022/12/22 05:27:52;;;;;;;50.35;30.85;;;;;;;0.31;82.88;95066.16;5093886;28;20253;-75
2022/12/22 05:30:21;;;;;;;56.70;34.58;;;;;;;0.37;82.85;95067.63;5093465;28;20601;-74
2022/12/22 05:32:48;;;;;;;52.40;35.10;;;;;;;0.44;82.76;95069.03;5094591;28;20661;-74
2022/12/22 05:35:15;;;;;;;76.20;38.17;;;;;;;0.48;82.84;95073.16;5093693;28;20293;-74
2022/12/22 05:37:42;;;;;;;65.90;36.95;;;;;;;0.54;82.16;95068.56;5087834;28;20262;-73
2022/12/22 05:40:11;;;;;;;64.13;35.10;;;;;;;0.53;82.17;95074.66;5073505;28;20202;-75
2022/12/22 05:42:38;;;;;;;73.60;35.65;;;;;;;0.54;82.06;95068.56;5073802;28;20203;-74
2022/12/22 05:45:08;;;;;;;57.05;34.15;;;;;;;0.54;81.95;95066.00;5073238;28;20319;-75
2022/12/22 05:47:36;;;;;;;55.95;35.70;;;;;;;0.51;81.68;95066.13;5072980;28;20198;-74
2022/12/22 05:50:03;;;;;;;72.68;38.20;;;;;;;0.51;81.89;95066.13;5072971;28;20207;-75
2022/12/22 05:52:30;;;;;;;62.25;36.85;;;;;;;0.53;82.19;95063.47;5072808;28;20211;-74
2022/12/22 05:54:57;;;;;;;64.07;35.63;;;;;;;0.54;82.07;95071.16;5073025;28;20206;-74
2022/12/22 05:57:24;;;;;;;61.90;37.92;;;;;;;0.57;86.24;95068.44;5073196;28;20199;-75
2022/12/22 05:59:50;;;;;;;75.90;44.60;;;;;;;0.63;84.73;95072.53;5072138;28;20446;-75
2022/12/22 06:02:17;;;;;;;75.28;44.95;;;;;;;0.68;83.96;95067.16;5073061;28;20295;-74
2022/12/22 06:04:45;;;;;;;102.22;53.80;;;;;;;0.69;83.39;95079.16;5072674;28;20235;-74
2022/12/22 06:07:12;;;;;;;89.72;46.45;;;;;;;0.68;82.45;95072.31;5020909;28;20208;-74
2022/12/22 06:09:39;;;;;;;102.70;52.13;;;;;;;0.68;82.37;95078.31;5041977;28;20198;-74
2022/12/22 06:12:06;;;;;;;80.65;48.85;;;;;;;0.68;82.32;95078.31;5072394;28;20204;-74
2022/12/22 06:14:33;;;;;;;104.00;52.17;;;;;;;0.64;82.69;95074.19;5087563;28;20207;-74
2022/12/22 06:17:00;;;;;;;83.47;42.90;;;;;;;0.31;82.94;95073.91;5092658;28;20506;-75
2022/12/22 06:19:27;;;;;;;86.22;43.58;;;;;;;0.26;83.72;95074.06;5092356;28;20275;-75
2022/12/22 06:21:55;;;;;;;61.03;34.95;;;;;;;0.28;83.49;95068.84;5092596;28;20211;-74
2022/12/22 06:24:22;;;;;;;58.60;33.85;;;;;;;-0.06;85.13;95067.66;5086646;28;20277;-73
2022/12/22 06:26:49;;;;;;;83.07;37.53;;;;;;;0.05;85.60;95071.56;5073075;28;20204;-75
2022/12/22 06:29:15;;;;;;;62.00;37.75;;;;;;;0.11;85.81;95069.56;5072541;28;20206;-74
2022/12/22 06:31:42;;;;;;;72.53;41.90;;;;;;;0.18;85.89;95068.41;5072501;28;20268;-76
2022/12/22 06:34:09;;;;;;;105.65;50.90;;;;;;;0.23;85.40;95071.63;5072460;28;20211;-74
2022/12/22 06:36:37;;;;;;;74.13;44.05;;;;;;;0.30;85.59;95079.97;5072628;28;20297;-74
2022/12/22 06:39:06;;;;;;;82.25;46.47;;;;;;;0.39;85.66;95073.56;5072247;28;20204;-74
2022/12/22 06:44:17;;;;;;;118.80;62.15;;;;;;;0.46;85.71;95083.56;5072221;28;20221;-73
2022/12/22 06:46:43;;;;;;;106.95;60.92;;;;;;;0.43;86.38;95086.28;5072376;28;20207;-74
2022/12/22 06:49:10;;;;;;;118.80;58.83;;;;;;;0.40;87.37;95090.72;5072085;28;20204;-74
2022/12/22 06:51:37;;;;;;;127.28;69.25;;;;;;;0.43;87.90;95088.03;5074063;28;20260;-74
2022/12/22 06:54:05;;;;;;;138.80;67.05;;;;;;;0.52;88.68;95083.28;5085403;28;20716;-75
2022/12/22 06:56:32;;;;;;;141.30;72.93;;;;;;;0.65;88.10;95088.78;5033506;28;20214;-74
2022/12/22 06:58:59;;;;;;;127.43;71.82;;;;;;;0.80;88.53;95087.28;5076072;28;20203;-75
2022/12/22 07:01:25;;;;;;;150.48;78.43;;;;;;;0.95;88.28;95086.63;5072718;28;20235;-74
2022/12/22 07:03:52;;;;;;;157.45;79.07;;;;;;;1.09;87.58;95086.81;5084473;28;20260;-74
2022/12/22 07:06:19;;;;;;;129.27;72.07;;;;;;;1.20;87.68;95087.19;5033364;28;20206;-74
2022/12/22 07:08:47;;;;;;;114.32;67.43;;;;;;;1.18;88.34;95083.00;5076353;28;20638;-74
2022/12/22 07:11:16;;;;;;;133.35;63.30;;;;;;;1.23;88.40;95088.81;5091675;28;20661;-74
2022/12/22 07:13:43;;;;;;;124.32;62.80;;;;;;;1.24;88.92;95088.72;5091875;28;20279;-73
2022/12/22 07:16:10;;;;;;;120.72;63.63;;;;;;;1.34;88.53;95089.13;5091949;28;20209;-74
2022/12/22 07:18:39;;;;;;;108.63;59.58;;;;;;;1.42;88.24;95092.19;5091796;28;20218;-74
2022/12/22 07:21:08;;;;;;;108.72;59.42;;;;;;;1.37;88.56;95082.97;5083421;28;20200;-73
2022/12/22 07:23:35;;;;;;;120.35;65.13;;;;;;;1.54;88.72;95091.66;5077270;28;20213;-73
2022/12/22 07:26:02;;;;;;;131.10;70.65;;;;;;;1.66;89.03;95095.41;5083350;28;20281;-73
2022/12/22 07:28:33;;;;;;;106.43;62.27;;;;;;;1.81;88.98;95092.09;5082677;28;20208;-74
2022/12/22 07:30:59;;;;;;;101.78;53.92;;;;;;;1.90;88.59;95102.91;5079558;28;20452;-74
2022/12/22 07:33:26;;;;;;;87.57;54.60;;;;;;;2.00;87.76;95092.03;5082026;28;20201;-73
2022/12/22 07:36:04;;;;;;;104.80;59.60;;;;;;;2.13;87.77;95094.91;5081079;28;20479;-74
2022/12/22 07:38:35;;;;;;;103.70;55.60;;;;;;;2.29;86.70;95088.03;5077007;28;20505;-73
2022/12/22 07:41:02;;;;;;;101.10;51.80;;;;;;;2.38;85.27;95087.59;5075049;28;20849;-74
2022/12/22 07:43:29;;;;;;;71.77;44.57;;;;;;;2.32;85.06;95087.06;5030472;28;20448;-74
2022/12/22 07:45:56;;;;;;;88.43;45.13;;;;;;;2.42;84.34;95089.13;5087952;28;20911;-73
2022/12/22 07:51:07;;;;;;;88.97;50.10;;;;;;;2.49;84.58;95080.13;5096794;28;20617;-76
2022/12/22 07:53:34;;;;;;;76.53;47.37;;;;;;;2.57;85.22;95087.50;5095080;28;20497;-73
2022/12/22 07:56:03;;;;;;;92.60;50.43;;;;;;;2.60;84.65;95089.97;5095433;28;20443;-73
2022/12/22 07:58:31;;;;;;;96.07;51.43;;;;;;;2.61;83.63;95083.03;5095356;28;20447;-73
2022/12/22 08:01:02;;;;;;;88.77;48.60;;;;;;;2.68;83.43;95084.38;5094577;28;20479;-73
2022/12/22 08:03:29;;;;;;;99.13;59.63;;;;;;;2.71;83.67;95079.03;5044287;28;20443;-73
2022/12/22 08:05:55;;;;;;;127.40;67.17;;;;;;;2.84;82.98;95087.00;5094893;28;20545;-74
2022/12/22 08:08:22;;;;;;;104.03;59.93;;;;;;;2.77;83.58;95082.16;5094970;28;20447;-73
2022/12/22 08:10:49;;;;;;;90.63;52.63;;;;;;;2.80;82.78;95089.75;5094607;28;20992;-73
2022/12/22 08:13:16;;;;;;;109.33;59.93;;;;;;;2.87;83.62;95085.09;5041772;28;20424;-73
2022/12/22 08:15:45;;;;;;;128.83;62.20;;;;;;;2.90;82.63;95082.38;5094204;28;20447;-73
2022/12/22 08:18:11;;;;;;;104.10;58.23;;;;;;;2.90;82.21;95078.94;5094126;28;20930;-74
2022/12/22 08:20:38;;;;;;;102.07;57.30;;;;;;;2.82;82.67;95074.13;5094135;28;20448;-74
2022/12/22 08:23:05;;;;;;;113.00;64.17;;;;;;;2.76;83.52;95079.63;5041632;28;20428;-74
2022/12/22 08:25:33;;;;;;;108.93;57.97;;;;;;;2.67;83.81;95082.72;5093897;28;20989;-74
2022/12/22 08:28:01;;;;;;;96.57;55.30;;;;;;;2.68;84.17;95086.97;5094180;28;20512;-74
2022/12/22 08:30:28;;;;;;;87.23;52.77;;;;;;;2.64;84.89;95077.69;5094013;28;20501;-74
2022/12/22 08:32:56;;;;;;;92.23;52.30;;;;;;;2.76;84.94;95079.63;5093871;28;20793;-74
2022/12/22 08:35:23;;;;;;;69.37;44.47;;;;;;;2.80;84.74;95082.00;5093684;28;20454;-74
2022/12/22 08:37:52;;;;;;;72.57;46.50;;;;;;;2.88;84.63;95078.16;5093742;28;20822;-74
2022/12/22 08:40:21;;;;;;;71.60;44.13;;;;;;;2.97;84.40;95077.69;5094013;28;20447;-74
2022/12/22 08:42:50;;;;;;;85.43;42.80;;;;;;;2.88;84.52;95080.75;5092428;28;20846;-74
2022/12/22 08:45:17;;;;;;;76.13;43.33;;;;;;;2.95;85.15;95077.78;5093476;28;20990;-74
2022/12/22 08:47:44;;;;;;;68.83;40.50;;;;;;;2.89;84.97;95067.75;5093542;28;20448;-74
2022/12/22 08:50:12;;;;;;;70.10;42.77;;;;;;;2.96;85.22;95070.84;5041555;28;20497;-74
2022/12/22 08:52:39;;;;;;;82.53;46.27;;;;;;;3.08;85.32;95071.03;5093618;28;20448;-73
2022/12/22 08:55:07;;;;;;;82.73;46.20;;;;;;;3.19;84.82;95061.88;5040981;28;20440;-74
2022/12/22 08:57:34;;;;;;;80.87;45.90;;;;;;;3.29;84.68;95063.03;5041001;28;20437;-74
2022/12/22 09:00:01;;;;;;;99.80;49.60;;;;;;;3.24;84.54;95058.09;5093018;28;20448;-73
2022/12/22 09:02:27;;;;;;;78.97;45.67;;;;;;;3.07;84.13;95047.78;5041070;28;20483;-74
2022/12/22 09:04:54;;;;;;;86.13;44.90;;;;;;;2.88;84.53;95055.66;5093127;28;20571;-74
2022/12/22 09:07:22;;;;;;;87.20;42.90;;;;;;;2.76;84.93;95049.38;5040781;28;20497;-73
2022/12/22 09:09:49;;;;;;;68.40;41.70;;;;;;;2.88;84.99;95042.72;5093289;28;20805;-74
2022/12/22 09:12:16;;;;;;;76.03;43.77;;;;;;;2.85;84.58;95042.03;5093027;28;20439;-74
2022/12/22 09:14:43;;;;;;;76.63;44.00;;;;;;;3.08;85.10;95033.91;5093078;28;20444;-73
2022/12/22 09:17:10;;;;;;;77.97;44.17;;;;;;;3.17;84.16;95033.38;5093310;28;20443;-74
2022/12/22 09:19:37;;;;;;;68.17;40.43;;;;;;;3.32;83.51;95026.56;5093094;28;20935;-74
2022/12/22 09:22:03;;;;;;;63.03;38.70;;;;;;;3.44;83.33;95028.47;5040980;28;20939;-74
2022/12/22 09:24:32;;;;;;;52.00;35.70;;;;;;;3.56;81.25;95020.03;5092566;28;20934;-73
2022/12/22 09:26:59;;;;;;;62.03;35.90;;;;;;;3.61;81.67;95025.78;5094560;28;20489;-74
2022/12/22 09:29:25;;;;;;;56.97;32.77;;;;;;;3.39;82.45;95018.34;5094790;28;20432;-75
2022/12/22 09:31:52;;;;;;;60.60;36.33;;;;;;;3.49;83.17;95007.50;5094877;28;20435;-74
2022/12/22 09:34:19;;;;;;;61.17;38.53;;;;;;;3.57;83.65;95010.50;5094793;28;20444;-74
2022/12/22 09:36:47;;;;;;;60.57;37.77;;;;;;;3.42;83.67;95010.41;5094839;28;20956;-74
2022/12/22 09:39:14;;;;;;;56.87;35.57;;;;;;;3.24;84.40;95008.00;5094466;28;20428;-77
2022/12/22 09:41:46;;;;;;;55.37;34.17;;;;;;;3.42;82.80;95006.97;5094417;28;20807;-73
2022/12/22 09:44:18;;;;;;;56.63;37.13;;;;;;;3.59;82.76;95000.84;5094568;28;20432;-74
2022/12/22 09:46:47;;;;;;;59.03;36.37;;;;;;;3.88;81.95;95009.59;5094792;28;20811;-72
2022/12/22 09:49:16;;;;;;;57.73;35.30;;;;;;;4.02;81.27;94996.66;5094410;28;20428;-75
2022/12/22 09:51:46;;;;;;;63.87;37.93;;;;;;;4.17;79.90;95005.34;5093735;28;20444;-75
2022/12/22 09:54:14;;;;;;;60.00;37.30;;;;;;;4.37;78.61;95012.81;5041340;28;20466;-73
2022/12/22 09:56:43;;;;;;;53.00;33.23;;;;;;;4.53;76.38;95007.53;5093525;28;20451;-73
2022/12/22 09:59:12;;;;;;;65.03;36.77;;;;;;;4.72;76.71;94997.72;5092883;28;20440;-75
2022/12/22 10:01:56;;;;;;;56.43;36.23;;;;;;;4.80;74.69;95010.25;5092307;28;20471;-75
2022/12/22 10:04:38;;;;;;;67.53;38.83;;;;;;;4.76;74.91;94991.41;5092110;28;20819;-74
2022/12/22 10:07:17;;;;;;;73.57;41.63;;;;;;;4.85;74.63;94985.63;5092187;28;20889;-75
2022/12/22 10:09:44;;;;;;;76.73;43.27;;;;;;;4.92;74.26;94978.31;5092244;28;20439;-74
2022/12/22 10:12:17;;;;;;;73.60;40.93;;;;;;;4.96;74.01;94974.59;5092070;28;20807;-75
2022/12/22 10:14:46;;;;;;;65.40;38.57;;;;;;;5.08;73.74;94970.41;5092357;28;20484;-75
2022/12/22 10:17:23;;;;;;;66.13;38.83;;;;;;;5.18;72.88;94956.72;5092105;28;21039;-74
2022/12/22 10:19:51;;;;;;;63.80;38.00;;;;;;;5.26;72.76;94951.06;5092173;28;20447;-74
2022/12/22 10:22:30;;;;;;;74.70;37.00;;;;;;;5.38;72.23;94950.25;5092024;28;20436;-75
2022/12/22 10:24:57;;;;;;;70.60;37.37;;;;;;;5.54;72.40;94947.53;5091980;28;20447;-73
2022/12/22 10:27:29;;;;;;;67.87;38.67;;;;;;;5.34;73.02;94942.75;5092271;28;20489;-75
2022/12/22 10:30:17;;;;;;;59.23;38.13;;;;;;;5.55;73.71;94944.81;5092539;28;20505;-75
2022/12/22 10:33:00;;;;;;;56.23;34.93;;;;;;;5.61;72.42;94941.00;5092052;28;20946;-74
2022/12/22 10:35:35;;;;;;;50.57;33.93;;;;;;;5.67;72.97;94937.97;5092491;28;20527;-75
2022/12/22 10:38:14;;;;;;;54.30;36.30;;;;;;;5.69;71.85;94932.69;5039825;28;20438;-74
2022/12/22 10:40:43;;;;;;;59.40;37.20;;;;;;;5.83;72.13;94940.44;5040098;28;20481;-74
2022/12/22 10:43:19;;;;;;;61.77;33.80;;;;;;;5.84;71.60;94931.69;5092090;28;20454;-75
2022/12/22 10:45:48;;;;;;;58.10;33.77;;;;;;;5.95;70.95;94934.44;5088559;28;20499;-75
2022/12/22 10:48:16;;;;;;;57.17;33.90;;;;;;;6.05;71.17;94935.50;5078640;28;20453;-75
2022/12/22 10:50:46;;;;;;;59.33;36.43;;;;;;;6.13;70.94;94924.59;5071485;28;20514;-75
2022/12/22 10:53:14;;;;;;;51.83;34.30;;;;;;;6.18;70.27;94918.13;5071028;28;20861;-75
2022/12/22 10:55:42;;;;;;;57.33;35.23;;;;;;;6.27;69.05;94923.66;5071088;28;20448;-75
2022/12/22 10:58:18;;;;;;;61.50;34.70;;;;;;;6.21;68.76;94920.53;5078000;28;20444;-75
2022/12/22 11:01:00;;;;;;;62.50;34.47;;;;;;;6.36;68.99;94912.59;5093007;28;20445;-75
2022/12/22 11:03:29;;;;;;;58.50;35.53;;;;;;;6.53;68.49;94914.88;5022372;28;20572;-75
2022/12/22 11:05:56;;;;;;;47.63;32.90;;;;;;;6.57;68.11;94905.91;5073150;28;20485;-73
2022/12/22 11:08:25;;;;;;;53.80;33.37;;;;;;;6.56;67.08;94899.03;5074228;28;20520;-72
2022/12/22 11:10:57;;;;;;;54.50;30.47;;;;;;;6.67;67.69;94891.31;5074923;28;20498;-73
2022/12/22 11:13:53;;;;;;;46.33;33.27;;;;;;;6.75;66.85;94898.59;5075488;28;20494;-73
2022/12/22 11:16:29;;;;;;;52.13;32.90;;;;;;;6.78;66.76;94894.00;4995926;28;20546;-74
2022/12/22 11:19:24;;;;;;;46.70;30.00;;;;;;;6.91;66.90;94887.91;5012266;28;20531;-74
2022/12/22 11:21:59;;;;;;;47.90;31.93;;;;;;;6.95;65.53;94889.41;5006880;28;20445;-74
2022/12/22 11:24:35;;;;;;;46.87;29.90;;;;;;;6.88;65.88;94878.53;4956374;28;20460;-75
2022/12/22 11:27:18;;;;;;;46.57;30.30;;;;;;;7.00;65.23;94882.06;5011589;28;20531;-75
2022/12/22 11:30:10;;;;;;;49.73;30.33;;;;;;;7.01;64.50;94883.75;4981565;28;20499;-72
2022/12/22 11:33:06;;;;;;;58.13;30.50;;;;;;;7.06;64.18;94876.41;4956282;28;20504;-73
2022/12/22 11:35:56;;;;;;;47.90;28.70;;;;;;;7.14;64.09;94868.84;4952635;29;21051;-73
2022/12/22 11:38:36;;;;;;;45.90;30.33;;;;;;;7.32;64.27;94861.50;4940202;28;20484;-73
2022/12/22 11:41:12;;;;;;;55.47;29.93;;;;;;;7.47;63.35;94865.59;4960229;28;20467;-74
2022/12/22 11:43:50;;;;;;;67.83;30.00;;;;;;;7.60;62.96;94865.53;4944536;29;20511;-73
2022/12/22 11:46:27;;;;;;;57.30;31.70;;;;;;;7.66;62.49;94855.47;4926709;28;20503;-74
2022/12/22 11:49:10;;;;;;;44.93;31.83;;;;;;;7.62;62.81;94863.66;4941547;28;20462;-74
2022/12/22 11:51:54;;;;;;;53.47;29.30;;;;;;;7.75;62.39;94849.56;4967877;28;20456;-74
2022/12/22 11:54:45;;;;;;;50.37;31.70;;;;;;;7.83;61.40;94849.00;5031950;28;20899;-74
2022/12/22 11:57:23;;;;;;;46.53;30.07;;;;;;;7.88;60.40;94851.25;4967680;28;20450;-74
2022/12/22 11:59:59;;;;;;;43.60;28.67;;;;;;;7.96;59.94;94847.13;4919243;29;20461;-74
2022/12/22 12:02:58;;;;;;;50.63;31.47;;;;;;;8.04;59.21;94849.16;4970173;28;20641;-74
2022/12/22 12:05:58;;;;;;;62.83;32.67;;;;;;;8.08;59.93;94851.41;4972261;28;20452;-73
2022/12/22 12:08:34;;;;;;;53.53;31.83;;;;;;;8.06;60.08;94839.41;4973478;28;20451;-74
2022/12/22 12:11:16;;;;;;;56.43;32.50;;;;;;;8.09;60.22;94841.78;5009521;28;20902;-74
2022/12/22 12:13:52;;;;;;;50.80;34.73;;;;;;;8.06;59.80;94828.97;5010406;28;20941;-74
2022/12/22 12:16:29;;;;;;;57.23;34.00;;;;;;;8.19;59.22;94831.50;5005258;28;20627;-75
2022/12/22 12:19:28;;;;;;;52.87;33.10;;;;;;;8.29;59.02;94835.06;5000866;28;20454;-74
2022/12/22 12:21:56;;;;;;;58.13;32.47;;;;;;;8.23;58.43;94833.75;5007318;28;20512;-74
2022/12/22 12:24:39;;;;;;;64.87;36.03;;;;;;;8.26;58.46;94830.06;5008065;28;20432;-73
2022/12/22 12:27:11;;;;;;;52.57;33.17;;;;;;;8.23;58.66;94830.31;5012402;28;20486;-75
2022/12/22 12:29:44;;;;;;;53.50;35.93;;;;;;;8.30;57.74;94828.88;4986447;28;20447;-73
2022/12/22 12:32:16;;;;;;;53.53;32.43;;;;;;;8.33;58.27;94829.50;5012569;28;20786;-74
2022/12/22 12:34:49;;;;;;;53.30;33.47;;;;;;;8.23;59.51;94831.13;5067897;28;20442;-75
2022/12/22 12:37:21;;;;;;;48.60;31.47;;;;;;;8.29;59.82;94830.66;5095345;28;20927;-75
2022/12/22 12:39:59;;;;;;;53.00;30.83;;;;;;;8.17;59.33;94820.31;5094389;28;20530;-75
2022/12/22 12:42:31;;;;;;;51.17;32.50;;;;;;;7.95;60.57;94827.16;5093867;28;20435;-74
2022/12/22 12:44:59;;;;;;;51.10;31.70;;;;;;;7.96;60.50;94825.38;5094777;28;20935;-74
2022/12/22 12:47:28;;;;;;;51.40;31.30;;;;;;;7.95;60.22;94823.72;5095378;28;20592;-75
2022/12/22 12:49:59;;;;;;;55.60;32.27;;;;;;;7.87;61.22;94824.31;5094024;28;20440;-74
2022/12/22 12:53:14;;;;;;;53.40;31.47;;;;;;;7.93;61.33;94818.63;5093842;28;20507;-74
2022/12/22 12:55:58;;;;;;;49.50;32.57;;;;;;;8.05;61.45;94811.63;4993071;28;20950;-75
2022/12/22 12:58:51;;;;;;;45.87;30.13;;;;;;;8.14;61.23;94810.09;4991819;28;20453;-74
2022/12/22 13:01:54;;;;;;;49.47;30.47;;;;;;;8.02;62.53;94819.69;4992924;28;20492;-75
2022/12/22 13:05:11;;;;;;;50.90;30.90;;;;;;;8.15;62.47;94807.38;4992525;28;20455;-74
2022/12/22 13:08:08;;;;;;;59.17;31.83;;;;;;;8.22;61.86;94816.41;4991998;28;20978;-74
2022/12/22 13:10:37;;;;;;;41.13;29.60;;;;;;;8.25;61.93;94810.09;4960048;28;20502;-74
2022/12/22 13:13:05;;;;;;;60.10;36.27;;;;;;;8.27;62.12;94809.03;4959607;28;20460;-74
2022/12/22 13:15:34;;;;;;;57.87;33.63;;;;;;;8.29;61.70;94804.50;4991370;28;20497;-74
2022/12/22 13:18:02;;;;;;;59.90;36.83;;;;;;;8.33;62.24;94808.59;4991658;28;20450;-73
2022/12/22 13:20:32;;;;;;;45.97;31.43;;;;;;;8.16;61.96;94802.97;4992624;28;20448;-73
2022/12/22 13:23:01;;;;;;;62.67;31.33;;;;;;;8.08;63.02;94799.16;4992263;28;20809;-74
2022/12/22 13:25:40;;;;;;;59.73;32.80;;;;;;;8.14;63.66;94797.03;4991308;28;20447;-74
2022/12/22 13:28:14;;;;;;;45.43;31.73;;;;;;;8.22;63.45;94803.31;4959386;28;20494;-74
2022/12/22 13:30:47;;;;;;;52.50;30.13;;;;;;;8.03;63.58;94796.06;4940489;28;20489;-74
2022/12/22 13:33:17;;;;;;;62.70;33.10;;;;;;;8.22;63.48;94802.50;5056941;28;20452;-74
2022/12/22 13:35:47;;;;;;;51.67;30.70;;;;;;;8.23;63.59;94799.75;5075628;28;20440;-74
2022/12/22 13:38:30;;;;;;;58.47;32.97;;;;;;;8.17;64.24;94796.78;5094617;28;20459;-75
2022/12/22 13:40:59;;;;;;;52.93;34.23;;;;;;;8.15;64.63;94796.09;5084372;28;20475;-75
2022/12/22 13:43:28;;;;;;;52.13;33.60;;;;;;;8.12;64.88;94801.56;5093069;28;20452;-74
2022/12/22 13:45:56;;;;;;;56.53;34.20;;;;;;;7.85;66.31;94799.25;5095503;28;20893;-74
2022/12/22 13:48:27;;;;;;;55.20;34.03;;;;;;;7.92;66.25;94790.81;5096955;28;20507;-75
2022/12/22 13:50:57;;;;;;;59.90;35.10;;;;;;;7.78;66.15;94801.47;5112168;28;20440;-74
2022/12/22 13:53:31;;;;;;;56.57;33.00;;;;;;;7.68;66.67;94792.66;5114943;28;20443;-73
2022/12/22 13:55:59;;;;;;;48.17;32.00;;;;;;;7.68;67.14;94796.13;5115741;28;20453;-73
2022/12/22 13:58:28;;;;;;;65.37;34.10;;;;;;;7.69;66.94;94792.56;5108459;28;20500;-75
2022/12/22 14:01:04;;;;;;;50.20;32.10;;;;;;;7.59;67.22;94790.75;5093953;28;20464;-72
2022/12/22 14:03:31;;;;;;;52.90;33.50;;;;;;;7.59;66.92;94795.97;5093487;28;20452;-74
2022/12/22 14:05:57;;;;;;;48.60;32.50;;;;;;;7.67;66.98;94797.06;5089381;28;20477;-74
2022/12/22 14:08:24;;;;;;;51.77;31.97;;;;;;;7.60;67.14;94798.47;5094225;28;20444;-74
2022/12/22 14:10:53;;;;;;;64.03;36.87;;;;;;;7.60;67.20;94792.41;5094575;28;20451;-75
2022/12/22 14:13:26;;;;;;;79.33;44.57;;;;;;;7.53;68.32;94792.06;5090601;28;20521;-74
2022/12/22 14:16:00;;;;;;;64.73;38.20;;;;;;;7.65;68.09;94792.91;5042132;28;21069;-74
2022/12/22 14:18:27;;;;;;;76.17;40.03;;;;;;;7.66;68.20;94787.56;5093680;28;20424;-74
2022/12/22 14:20:55;;;;;;;64.83;37.27;;;;;;;7.69;68.52;94789.13;5092914;28;20445;-75
2022/12/22 14:23:25;;;;;;;63.60;38.63;;;;;;;7.63;68.62;94784.34;5093147;28;20440;-75
2022/12/22 14:25:54;;;;;;;78.30;39.17;;;;;;;7.42;69.50;94787.59;5094857;28;20436;-75
2022/12/22 14:28:27;;;;;;;100.77;50.63;;;;;;;7.30;70.62;94780.69;5092516;28;20479;-75
2022/12/22 14:30:57;;;;;;;122.57;57.53;;;;;;;7.39;70.42;94784.41;5095610;28;20440;-75
2022/12/22 14:33:29;;;;;;;105.37;52.87;;;;;;;7.43;70.42;94783.22;5094054;28;20440;-75
2022/12/22 14:36:22;;;;;;;86.73;42.50;;;;;;;7.32;71.08;94781.41;5095507;28;20471;-75
2022/12/22 14:38:51;;;;;;;236.23;110.40;;;;;;;7.19;71.29;94778.03;5013481;28;20547;-76
2022/12/22 14:41:41;;;;;;;130.13;71.63;;;;;;;7.09;71.63;94779.66;5018154;28;20426;-76
2022/12/22 14:44:15;;;;;;;75.27;45.97;;;;;;;7.19;71.32;94777.19;5010340;28;20455;-77
2022/12/22 14:46:43;;;;;;;78.67;47.37;;;;;;;7.20;71.86;94778.84;4995210;28;20547;-73
2022/12/22 14:49:16;;;;;;;92.40;44.43;;;;;;;7.25;71.72;94782.00;4994831;28;20454;-75
2022/12/22 14:51:43;;;;;;;72.03;42.60;;;;;;;7.26;72.18;94784.47;4952874;28;20514;-76
2022/12/22 14:54:20;;;;;;;84.33;48.27;;;;;;;7.26;71.84;94776.66;4999566;28;20472;-74
2022/12/22 14:56:49;;;;;;;66.73;42.73;;;;;;;7.25;72.63;94779.38;4995353;28;20993;-74
2022/12/22 14:59:25;;;;;;;93.23;48.43;;;;;;;7.24;72.13;94786.38;5014970;28;20529;-75
2022/12/22 15:02:01;;;;;;;99.13;48.10;;;;;;;7.23;72.44;94794.28;5014734;28;20477;-73
2022/12/22 15:04:28;;;;;;;92.80;47.33;;;;;;;7.21;72.57;94788.34;5014797;28;20476;-75
2022/12/22 15:07:06;;;;;;;105.50;55.00;;;;;;;7.18;72.76;94789.41;4998064;28;20632;-74
2022/12/22 15:09:32;;;;;;;113.37;57.73;;;;;;;7.15;73.21;94790.47;4995201;28;20505;-74
2022/12/22 15:12:05;;;;;;;117.00;56.80;;;;;;;7.12;73.56;94795.91;4978248;28;20452;-74
2022/12/22 15:14:37;;;;;;;130.30;59.53;;;;;;;7.08;73.48;94798.88;5006215;28;20454;-74
2022/12/22 15:17:05;;;;;;;113.23;61.67;;;;;;;7.01;73.59;94795.88;5072968;28;20455;-74
2022/12/22 15:19:35;;;;;;;108.07;61.40;;;;;;;6.97;73.66;94804.88;5099441;28;20486;-75
2022/12/22 15:22:07;;;;;;;115.73;51.30;;;;;;;6.89;74.06;94795.91;5104684;28;20445;-74